METAR Data
IDs: Format: Raw Decoded Include TAF

Data at: 2110 UTC 01 Oct 2022

KOXC 012051Z 03014G20KT 10SM SCT019 BKN024 OVC041 15/11 A3002 RMK AO2 SLP177 T01500106 55008
KOXC 011951Z 02011G17KT 10SM BKN020 OVC029 16/11 A3001 RMK AO2 SLP175 T01560111
KOXC 011910Z 04014G22KT 10SM SCT015 BKN020 OVC046 16/11 A3002 RMK AO2
KOXC 011851Z COR 04013G19KT 10SM FEW015 BKN022 OVC040 15/11 A3003 RMK AO2 SLP179 T01500106
KOXC 011840Z 04011G16KT 10SM FEW015 BKN032 OVC040 15/11 A3003 RMK AO2
KOXC 011826Z 06014G17KT 10SM SCT015 BKN023 OVC035 15/11 A3003 RMK AO2
KOXC 011751Z 04007KT 10SM SCT015 OVC035 14/10 A3004 RMK AO2 SLP186 60007 T01440100 10144 20100 58016
KOXC 011738Z 04007KT 10SM BKN015 OVC037 14/10 A3005 RMK AO2
KOXC 011651Z 04009KT 10SM FEW017 OVC041 13/09 A3006 RMK AO2 SLP193 T01330094
KOXC 011640Z 05008KT 10SM SCT019 OVC043 13/09 A3007 RMK AO2
KOXC 011558Z 04009KT 10SM BKN019 OVC039 12/09 A3009 RMK AO2
KOXC 011551Z 03007KT 10SM BKN050 12/09 A3009 RMK AO2 SLP202 T01220089
KOXC 011451Z COR 06013G19KT 10SM BKN050 11/09 A3009 RMK AO2 RAB01E17 SLP203 P0000 60007 T01110089 56020
KOXC 011351Z 06014G20KT 10SM OVC050 11/09 A3010 RMK AO2 RAE15 SLP207 P0001 T01060089
KOXC 011251Z 04009KT 6SM -RA BR OVC060 10/09 A3013 RMK AO2 SLP216 P0006 T01000094
KOXC 011151Z 04008KT 5SM -RA BR FEW070 SCT080 OVC100 11/09 A3015 RMK AO2 SLP224 P0002 60003 70003 T01060089 10111 20100 53009
KOXC 011051Z 04011KT 10SM -RA BKN080 OVC110 11/09 A3012 RMK AO2 RAB0958 SLP212 P0000 T01060089
KOXC 010951Z AUTO 03010KT 10SM OVC100 10/09 A3013 RMK AO2 RAE0859B19E44 SLP215 P0000 T01000089
KOXC 010851Z AUTO 05007KT 10SM -RA FEW090 OVC110 11/09 A3012 RMK AO2 SLP214 P0001 60001 T01060089 58005
KOXC 010751Z AUTO 03008KT 10SM -RA FEW075 OVC110 11/09 A3013 RMK AO2 RAB31 PRESFR SLP214 P0000 T01060089
KOXC 010651Z AUTO 32004KT 10SM BKN120 11/09 A3017 RMK AO2 SLP229 T01060089
KOXC 010551Z AUTO 06008KT 10SM BKN110 11/09 A3014 RMK AO2 SLP219 T01060089 10122 20106 57019
KOXC 010451Z AUTO 02006KT 10SM CLR 11/09 A3015 RMK AO2 SLP223 T01110089 401500067
KOXC 010351Z AUTO 06005KT 10SM CLR 12/09 A3018 RMK AO2 SLP234 T01170089
KOXC 010251Z AUTO 05005KT 10SM CLR 12/08 A3020 RMK AO2 SLP240 T01220083 58009
KOXC 010151Z AUTO 06005KT 10SM CLR 12/09 A3022 RMK AO2 SLP247 T01170089
KOXC 010051Z 05003KT 10SM CLR 12/09 A3023 RMK AO2 SLP251 T01170089
KOXC 302351Z 03005KT 10SM CLR 12/09 A3023 RMK AO2 SLP251 T01220094 10150 20122 56008
KOXC 302251Z 04005KT 10SM CLR 13/09 A3023 RMK AO2 SLP253 T01280089
KOXC 302151Z 10SM CLR 13/09 A3024 RMK AO2 SLP253 T01330089
KOXC 302051Z VRB04KT 10SM CLR 14/09 A3025 RMK AO2 SLP258 T01390089 58013
KOXC 301951Z 00000KT 10SM SCT029 15/08 A3028 RMK AO2 SLP266 T01500083
KOXC 301851Z 08006KT 10SM SCT031 14/08 A3028 RMK AO2 SLP267 T01440083
KOXC 301751Z 09005KT 10SM FEW029 14/08 A3029 RMK AO2 SLP271 T01440078 10150 20072 58023
KOXC 301651Z 04007KT 10SM FEW030 14/08 A3031 RMK AO2 SLP278 T01390083
KOXC 301551Z 07005KT 10SM FEW025 13/08 A3035 RMK AO2 SLP289 T01330078
KOXC 301451Z 04006KT 10SM SCT023 12/08 A3036 RMK AO2 SLP295 T01220078 58001
KOXC 301351Z 07008KT 10SM FEW025 11/07 A3037 RMK AO2 SLP299 T01060067
KOXC 301251Z 04005KT 10SM CLR 09/05 A3037 RMK AO2 SLP301 T00890050
KOXC 301151Z 03009KT 10SM CLR 07/04 A3036 RMK AO2 SLP295 T00720044 10089 20067 51008
KOXC 301051Z 02007KT 10SM CLR 07/04 A3036 RMK AO2 SLP297 T00670039
KOXC 300951Z AUTO 04005KT 10SM CLR 07/04 A3035 RMK AO2 SLP293 T00720039